Time;durP1;ratioP1;P1;durP2;ratioP2;P2;SDS_P1;SDS_P2;PMS_P1;PMS_P2;Temp;Humidity;BMP_temperature;BMP_pressure;BME280_temperature;BME280_humidity;BME280_pressure;Samples;Min_cycle;Max_cycle;Signal;HPM_P1;HPM_P2
2022/10/04 00:01:46;;;;;;;7.90;5.50;;;;;;;9.42;100.00;97248.84;4908690;29;20304;-63
2022/10/04 00:04:16;;;;;;;7.20;5.20;;;;;;;9.47;100.00;97254.59;4906554;29;20720;-62
2022/10/04 00:06:48;;;;;;;6.50;5.50;;;;;;;9.42;100.00;97248.84;4906902;29;20295;-62
2022/10/04 00:09:16;;;;;;;6.07;5.57;;;;;;;9.39;100.00;97252.56;4906075;29;20291;-64
2022/10/04 00:11:45;;;;;;;5.77;5.00;;;;;;;9.40;100.00;97256.03;4906451;29;20566;-63
2022/10/04 00:14:16;;;;;;;6.13;5.50;;;;;;;9.42;100.00;97262.06;4905706;29;20296;-64
2022/10/04 00:16:43;;;;;;;6.23;5.67;;;;;;;9.42;100.00;97259.41;4905739;29;20228;-63
2022/10/04 00:19:44;;;;;;;7.10;5.53;;;;;;;9.36;100.00;97262.53;4905970;29;20557;-64
2022/10/04 00:22:19;;;;;;;8.13;5.47;;;;;;;9.34;100.00;97267.94;4820211;29;20289;-63
2022/10/04 00:25:19;;;;;;;7.30;6.07;;;;;;;9.30;100.00;97265.66;4891811;29;20303;-63
2022/10/04 00:28:18;;;;;;;6.70;5.50;;;;;;;9.31;100.00;97262.91;4905701;29;20196;-63
2022/10/04 00:30:45;;;;;;;6.13;5.63;;;;;;;9.27;100.00;97257.97;4891594;29;20232;-64
2022/10/04 00:33:35;;;;;;;6.20;5.60;;;;;;;9.18;100.00;97259.53;4905468;29;20299;-63
2022/10/04 00:36:31;;;;;;;8.27;5.93;;;;;;;9.24;100.00;97256.44;4905752;29;20237;-64
2022/10/04 00:39:36;;;;;;;7.90;6.57;;;;;;;9.25;100.00;97254.59;4905561;29;20235;-65
2022/10/04 00:42:10;;;;;;;8.03;6.17;;;;;;;9.26;100.00;97256.28;4885894;29;20752;-63
2022/10/04 00:44:41;;;;;;;6.60;5.90;;;;;;;9.19;100.00;97257.72;4904795;29;20331;-63
2022/10/04 00:47:19;;;;;;;6.93;6.20;;;;;;;9.18;100.00;97253.41;4905859;29;20295;-63
2022/10/04 00:49:47;;;;;;;10.63;6.50;;;;;;;9.16;100.00;97257.97;4906063;29;20284;-64
2022/10/04 00:52:16;;;;;;;6.70;6.10;;;;;;;9.12;100.00;97260.00;4905857;29;20223;-64
2022/10/04 00:54:45;;;;;;;7.73;5.80;;;;;;;9.10;100.00;97261.94;4905280;29;20216;-63
2022/10/04 00:57:21;;;;;;;6.87;6.07;;;;;;;9.15;100.00;97256.28;4905670;29;20227;-64
2022/10/04 00:59:49;;;;;;;7.20;6.00;;;;;;;9.12;100.00;97253.88;4909019;29;20798;-66
2022/10/04 01:02:18;;;;;;;10.30;6.50;;;;;;;9.06;100.00;97249.09;4909315;29;20597;-64
2022/10/04 01:04:48;;;;;;;8.40;6.80;;;;;;;9.03;100.00;97254.59;4909064;29;20205;-65
2022/10/04 01:07:17;;;;;;;7.00;6.30;;;;;;;9.06;100.00;97257.00;4908976;29;20206;-63
2022/10/04 01:09:48;;;;;;;8.00;6.07;;;;;;;9.06;100.00;97249.94;4909110;29;20726;-65
2022/10/04 01:12:20;;;;;;;7.67;6.23;;;;;;;9.04;100.00;97251.84;4908814;29;20319;-65
2022/10/04 01:14:53;;;;;;;7.37;6.63;;;;;;;9.01;100.00;97254.72;4909149;29;20228;-65
2022/10/04 01:17:20;;;;;;;6.80;6.10;;;;;;;9.01;100.00;97246.81;4908671;29;20219;-65
2022/10/04 01:19:52;;;;;;;6.43;5.83;;;;;;;8.99;100.00;97244.31;4908770;29;20217;-64
2022/10/04 01:22:37;;;;;;;10.83;6.53;;;;;;;8.88;100.00;97236.38;4908205;29;20215;-64
2022/10/04 01:25:05;;;;;;;7.50;6.73;;;;;;;8.86;100.00;97238.28;4908411;29;20697;-64
2022/10/04 01:27:34;;;;;;;7.23;6.17;;;;;;;8.88;100.00;97236.38;4908487;29;20287;-65
2022/10/04 01:30:03;;;;;;;7.80;6.20;;;;;;;8.81;100.00;97229.03;4908999;29;20646;-65
2022/10/04 01:32:30;;;;;;;8.37;6.70;;;;;;;8.77;100.00;97228.44;4908447;29;20211;-65
2022/10/04 01:34:58;;;;;;;8.70;6.43;;;;;;;8.82;100.00;97218.34;4908444;29;20299;-63
2022/10/04 01:37:24;;;;;;;8.47;6.10;;;;;;;8.82;100.00;97226.28;4909294;29;20223;-64
2022/10/04 01:39:52;;;;;;;8.00;6.97;;;;;;;8.82;100.00;97221.00;4909130;29;20254;-64
2022/10/04 01:42:23;;;;;;;9.93;7.27;;;;;;;8.77;100.00;97212.63;4909765;29;20337;-64
2022/10/04 01:44:55;;;;;;;7.33;6.63;;;;;;;8.68;100.00;97218.56;4909374;29;20314;-63
2022/10/04 01:47:26;;;;;;;9.33;6.73;;;;;;;8.70;100.00;97216.69;4909771;29;20212;-65
2022/10/04 01:49:54;;;;;;;7.30;6.57;;;;;;;8.65;100.00;97216.19;4910162;29;20288;-65
2022/10/04 01:52:23;;;;;;;7.77;6.53;;;;;;;8.60;100.00;97217.50;4913026;29;20223;-65
2022/10/04 01:54:58;;;;;;;7.20;6.57;;;;;;;8.63;100.00;97215.47;4914838;29;20284;-65
2022/10/04 01:57:30;;;;;;;7.00;6.30;;;;;;;8.64;100.00;97217.16;4916574;29;20235;-65
2022/10/04 02:00:01;;;;;;;9.73;7.33;;;;;;;8.63;100.00;97214.63;4913760;29;20253;-64
2022/10/04 02:02:34;;;;;;;8.63;6.87;;;;;;;8.59;100.00;97218.44;4912955;29;20216;-66
2022/10/04 02:05:02;;;;;;;9.63;7.20;;;;;;;8.54;100.00;97216.16;4913866;29;21136;-64
2022/10/04 02:07:29;;;;;;;10.03;7.17;;;;;;;8.54;100.00;97213.53;4911816;29;20247;-65
2022/10/04 02:10:00;;;;;;;9.10;6.83;;;;;;;8.55;100.00;97207.28;4908937;29;20229;-64
2022/10/04 02:12:27;;;;;;;7.93;6.93;;;;;;;8.60;100.00;97210.44;4910422;29;20282;-65
2022/10/04 02:14:55;;;;;;;7.43;6.80;;;;;;;8.61;100.00;97216.56;4917438;29;20208;-65
2022/10/04 02:17:27;;;;;;;9.27;6.80;;;;;;;8.64;100.00;97208.41;4926267;29;21015;-65
2022/10/04 02:19:54;;;;;;;12.87;7.13;;;;;;;8.59;100.00;97214.03;4908509;29;20231;-66
2022/10/04 02:22:23;;;;;;;8.97;7.60;;;;;;;8.59;100.00;97219.28;4921655;29;20215;-66
2022/10/04 02:24:50;;;;;;;8.40;7.67;;;;;;;8.56;100.00;97214.25;4923918;29;20219;-66
2022/10/04 02:27:18;;;;;;;9.03;7.17;;;;;;;8.59;100.00;97214.03;4923873;29;20243;-64
2022/10/04 02:29:45;;;;;;;8.00;7.20;;;;;;;8.54;100.00;97215.34;4910114;29;20315;-64
2022/10/04 02:34:57;;;;;;;8.33;7.43;;;;;;;8.46;100.00;97218.56;4908197;29;20566;-64
2022/10/04 02:37:26;;;;;;;7.83;7.03;;;;;;;8.52;100.00;97214.59;4907695;29;20572;-66
2022/10/04 02:39:55;;;;;;;8.40;7.47;;;;;;;8.48;100.00;97211.34;4907388;29;20839;-65
2022/10/04 02:42:29;;;;;;;9.73;7.67;;;;;;;8.47;100.00;97214.94;4907449;29;20210;-63
2022/10/04 02:45:01;;;;;;;10.43;7.40;;;;;;;8.48;100.00;97206.09;4907358;29;20627;-64
2022/10/04 02:47:31;;;;;;;9.00;8.10;;;;;;;8.54;100.00;97215.34;4907543;29;20279;-64
2022/10/04 02:50:00;;;;;;;7.90;7.10;;;;;;;8.53;100.00;97203.94;4906836;29;20228;-65
2022/10/04 02:52:30;;;;;;;8.63;7.83;;;;;;;8.51;100.00;97195.31;4907259;29;20316;-64
2022/10/04 02:55:01;;;;;;;8.83;7.90;;;;;;;8.51;100.00;97195.31;4906563;29;20212;-66
2022/10/04 02:57:31;;;;;;;9.97;7.73;;;;;;;8.42;100.00;97193.38;4906954;29;20235;-65
2022/10/04 03:00:07;;;;;;;9.33;7.70;;;;;;;8.39;100.00;97190.97;4907177;29;20205;-64
2022/10/04 03:02:33;;;;;;;8.27;7.00;;;;;;;8.32;100.00;97187.13;4907530;29;20303;-66
2022/10/04 03:05:05;;;;;;;8.93;7.70;;;;;;;8.32;100.00;97187.13;4907187;29;20208;-65
2022/10/04 03:07:33;;;;;;;8.67;7.73;;;;;;;8.33;100.00;97186.16;4907782;29;20224;-66
2022/10/04 03:10:00;;;;;;;10.07;7.80;;;;;;;8.30;100.00;97186.38;4909010;29;20291;-66
2022/10/04 03:12:26;;;;;;;8.50;7.70;;;;;;;8.35;100.00;97187.75;4907348;29;20573;-65
2022/10/04 03:14:55;;;;;;;8.07;7.30;;;;;;;8.32;100.00;97189.75;4909116;29;20231;-66
2022/10/04 03:17:22;;;;;;;8.80;7.90;;;;;;;8.29;100.00;97190.81;4909998;29;20226;-66
2022/10/04 03:19:49;;;;;;;8.70;7.80;;;;;;;8.29;100.00;97182.09;4908431;29;20216;-65
2022/10/04 03:22:17;;;;;;;9.00;8.20;;;;;;;8.29;100.00;97180.28;4906458;29;20314;-66
2022/10/04 03:24:46;;;;;;;8.17;7.37;;;;;;;8.30;100.00;97184.59;4906309;29;20243;-65
2022/10/04 03:27:15;;;;;;;8.80;7.90;;;;;;;8.32;100.00;97187.13;4907073;29;20307;-66
2022/10/04 03:29:43;;;;;;;8.60;7.47;;;;;;;8.32;100.00;97180.06;4906554;29;20218;-66
2022/10/04 03:32:14;;;;;;;8.40;7.53;;;;;;;8.31;100.00;97182.81;4906908;29;20200;-65
2022/10/04 03:34:42;;;;;;;7.90;6.93;;;;;;;8.28;100.00;97180.38;4905493;29;20295;-65
2022/10/04 03:37:14;;;;;;;9.17;8.27;;;;;;;8.31;100.00;97190.72;4906340;29;20204;-65
2022/10/04 03:39:42;;;;;;;9.50;7.53;;;;;;;8.31;100.00;97188.06;4906964;29;20310;-65
2022/10/04 03:42:12;;;;;;;9.07;8.00;;;;;;;8.29;100.00;97190.81;4906611;29;20299;-65
2022/10/04 03:44:40;;;;;;;8.10;7.40;;;;;;;8.34;100.00;97198.38;4906372;29;20248;-65
2022/10/04 03:47:09;;;;;;;8.90;7.90;;;;;;;8.33;100.00;97194.91;4906506;29;20204;-63
2022/10/04 03:49:38;;;;;;;11.47;7.67;;;;;;;8.32;100.00;97200.31;4906665;29;20207;-64
2022/10/04 03:52:05;;;;;;;8.13;7.30;;;;;;;8.30;100.00;97196.94;4890315;29;20220;-64
2022/10/04 03:54:33;;;;;;;8.30;7.50;;;;;;;8.25;100.00;97188.50;4906006;29;20213;-65
2022/10/04 03:57:00;;;;;;;10.57;7.50;;;;;;;8.25;100.00;97191.16;4906232;29;20671;-63
2022/10/04 03:59:28;;;;;;;7.47;6.73;;;;;;;8.18;100.00;97197.84;4906600;29;20704;-63
2022/10/04 04:02:04;;;;;;;8.60;7.13;;;;;;;8.26;100.00;97190.16;4906212;29;20652;-66
2022/10/04 04:04:40;;;;;;;8.13;7.33;;;;;;;8.20;100.00;97196.75;4905987;29;20264;-65
2022/10/04 04:07:11;;;;;;;9.07;7.30;;;;;;;8.16;100.00;97189.19;4905548;29;20227;-65
2022/10/04 04:09:46;;;;;;;8.40;7.60;;;;;;;8.15;100.00;97198.06;4905618;29;20212;-64
2022/10/04 04:12:17;;;;;;;8.67;7.77;;;;;;;8.14;100.00;97194.59;4905528;29;20657;-65
2022/10/04 04:14:44;;;;;;;7.73;7.03;;;;;;;8.09;100.00;97194.06;4906585;29;20207;-63
2022/10/04 04:17:29;;;;;;;8.17;7.30;;;;;;;8.11;100.00;97189.56;4906315;29;20729;-64
2022/10/04 04:19:59;;;;;;;9.10;7.40;;;;;;;8.11;100.00;97193.97;4906113;29;20621;-64
2022/10/04 04:22:30;;;;;;;17.13;13.87;;;;;;;8.10;100.00;97193.13;4906676;29;20212;-64
2022/10/04 04:24:58;;;;;;;11.93;8.70;;;;;;;8.14;100.00;97197.22;4906765;29;20208;-64
2022/10/04 04:27:25;;;;;;;9.07;7.27;;;;;;;8.18;100.00;97185.50;4906472;29;20214;-64
2022/10/04 04:29:52;;;;;;;8.37;7.57;;;;;;;8.15;100.00;97195.44;4907365;29;20288;-64
2022/10/04 04:32:22;;;;;;;9.87;7.80;;;;;;;8.15;100.00;97198.06;4908791;29;20291;-63
2022/10/04 04:34:51;;;;;;;8.60;7.70;;;;;;;8.13;100.00;97192.91;4910986;29;20230;-64
2022/10/04 04:37:20;;;;;;;9.73;7.50;;;;;;;8.12;100.00;97193.00;4912060;29;20224;-62
2022/10/04 04:39:53;;;;;;;9.53;7.40;;;;;;;8.16;100.00;97183.91;4909430;29;20235;-65
2022/10/04 04:42:24;;;;;;;8.83;7.93;;;;;;;8.21;100.00;97187.06;4909826;29;20204;-65
2022/10/04 04:44:52;;;;;;;7.83;7.07;;;;;;;8.21;100.00;97182.63;4908903;29;21099;-68
2022/10/04 04:47:31;;;;;;;10.50;7.60;;;;;;;8.25;100.00;97177.97;4909452;29;20267;-64
2022/10/04 04:49:58;;;;;;;8.73;7.83;;;;;;;8.24;100.00;97181.56;4918391;29;20218;-67
2022/10/04 04:52:28;;;;;;;10.87;7.77;;;;;;;8.33;100.00;97194.06;4928192;29;20231;-65
2022/10/04 04:54:55;;;;;;;9.00;8.10;;;;;;;8.34;100.00;97195.75;4924787;29;20232;-64
2022/10/04 04:57:22;;;;;;;10.23;7.90;;;;;;;8.34;100.00;97201.88;4909224;29;20361;-64
2022/10/04 04:59:54;;;;;;;12.40;8.67;;;;;;;8.33;100.00;97202.81;4908913;29;20242;-64
2022/10/04 05:02:34;;;;;;;9.07;8.10;;;;;;;8.37;100.00;97195.50;4909511;29;20214;-65
2022/10/04 05:05:18;;;;;;;9.90;7.90;;;;;;;8.38;100.00;97205.09;4909103;29;21323;-65
2022/10/04 05:07:46;;;;;;;10.07;8.00;;;;;;;8.53;100.00;97208.38;4909096;29;20295;-65
2022/10/04 05:10:30;;;;;;;11.47;8.23;;;;;;;8.58;100.00;97209.69;4908927;29;20218;-64
2022/10/04 05:12:59;;;;;;;9.67;8.50;;;;;;;8.60;100.00;97205.16;4909013;29;20204;-64
2022/10/04 05:15:26;;;;;;;9.20;8.30;;;;;;;8.67;100.00;97206.38;4908673;29;20211;-64
2022/10/04 05:17:53;;;;;;;10.27;8.47;;;;;;;8.74;100.00;97207.59;4908484;29;20304;-63
2022/10/04 05:20:20;;;;;;;13.40;10.10;;;;;;;8.79;100.00;97209.84;4909343;29;20302;-67
2022/10/04 05:22:50;;;;;;;11.87;9.50;;;;;;;8.84;100.00;97207.72;4908866;29;20237;-61
2022/10/04 05:25:25;;;;;;;11.27;9.40;;;;;;;8.92;100.00;97210.59;4907900;29;20212;-66
2022/10/04 05:27:54;;;;;;;10.43;9.03;;;;;;;8.99;100.00;97202.09;4908685;29;20253;-65
2022/10/04 05:30:32;;;;;;;10.83;9.17;;;;;;;9.04;100.00;97203.50;4908074;29;20624;-64
2022/10/04 05:33:01;;;;;;;9.27;8.33;;;;;;;9.06;100.00;97202.44;4908487;29;20334;-65
2022/10/04 05:35:29;;;;;;;10.13;8.50;;;;;;;9.12;100.00;97206.38;4908597;29;20205;-66
2022/10/04 05:38:03;;;;;;;10.13;8.67;;;;;;;9.16;100.00;97205.19;4908844;29;20568;-66
2022/10/04 05:40:40;;;;;;;9.77;8.77;;;;;;;9.20;100.00;97204.00;4909155;29;20339;-65
2022/10/04 05:43:21;;;;;;;11.37;8.83;;;;;;;9.22;100.00;97208.19;4908728;29;20220;-66
2022/10/04 05:45:50;;;;;;;8.33;7.53;;;;;;;9.23;100.00;97206.38;4908002;29;20340;-66
2022/10/04 05:48:17;;;;;;;10.10;9.10;;;;;;;9.23;100.00;97214.31;4908374;29;20543;-66
2022/10/04 05:50:44;;;;;;;11.53;9.47;;;;;;;9.26;100.00;97208.78;4908453;29;20598;-66
2022/10/04 05:53:23;;;;;;;11.50;9.53;;;;;;;9.27;100.00;97206.03;4907991;29;20946;-64
2022/10/04 05:55:58;;;;;;;10.90;9.20;;;;;;;9.31;100.00;97212.75;4907811;29;20218;-66
2022/10/04 05:58:35;;;;;;;11.43;9.47;;;;;;;9.39;100.00;97214.75;4908382;29;20216;-65
2022/10/04 06:01:16;;;;;;;12.87;9.17;;;;;;;9.36;100.00;97215.84;4908026;29;20706;-66
2022/10/04 06:04:16;;;;;;;11.93;9.43;;;;;;;9.35;100.00;97216.00;4909026;29;20212;-65
2022/10/04 06:06:48;;;;;;;14.30;8.83;;;;;;;9.37;100.00;97211.41;4902686;29;20227;-64
2022/10/04 06:09:25;;;;;;;11.03;8.33;;;;;;;9.42;100.00;97211.91;4908286;29;20291;-66
2022/10/04 06:12:01;;;;;;;11.03;8.53;;;;;;;9.43;100.00;97211.75;4908887;29;20204;-66
2022/10/04 06:14:53;;;;;;;10.23;8.80;;;;;;;9.49;100.00;97210.44;4907815;29;20208;-66
2022/10/04 06:17:47;;;;;;;12.63;8.40;;;;;;;9.51;100.00;97213.78;4913049;29;20276;-66
2022/10/04 06:20:42;;;;;;;9.87;8.97;;;;;;;9.58;100.00;97217.63;4921250;29;20263;-65
2022/10/04 06:23:13;;;;;;;11.63;9.63;;;;;;;9.66;100.00;97228.41;4909085;29;20213;-65
2022/10/04 06:25:45;;;;;;;10.13;9.10;;;;;;;9.69;100.00;97222.88;4909188;29;20732;-65
2022/10/04 06:28:16;;;;;;;11.87;9.57;;;;;;;9.74;100.00;97235.72;4907427;29;20622;-66
2022/10/04 06:30:57;;;;;;;13.20;9.67;;;;;;;9.75;100.00;97242.66;4907963;29;20222;-66
2022/10/04 06:33:35;;;;;;;14.43;10.37;;;;;;;9.73;100.00;97245.44;4907771;29;21506;-65
2022/10/04 06:36:49;;;;;;;16.33;11.87;;;;;;;9.61;100.00;97256.97;4907505;29;20223;-65
2022/10/04 06:39:43;;;;;;;15.53;11.40;;;;;;;9.60;100.00;97252.66;4839381;29;20675;-66
2022/10/04 06:42:35;;;;;;;15.70;10.87;;;;;;;9.65;100.00;97253.13;4890461;29;20266;-65
2022/10/04 06:45:18;;;;;;;12.27;11.00;;;;;;;9.66;100.00;97259.28;4907470;29;20243;-66
2022/10/04 06:48:08;;;;;;;11.23;10.17;;;;;;;9.76;100.00;97255.78;4907307;29;20200;-65
2022/10/04 06:50:40;;;;;;;14.03;10.60;;;;;;;9.80;100.00;97251.91;4907024;29;20698;-66
2022/10/04 06:53:15;;;;;;;12.57;10.47;;;;;;;9.87;100.00;97246.97;4908512;29;20295;-65
2022/10/04 06:56:01;;;;;;;11.07;9.97;;;;;;;9.99;100.00;97243.31;4907055;29;20204;-66
2022/10/04 06:59:01;;;;;;;13.60;10.20;;;;;;;10.09;100.00;97246.06;4907921;29;20208;-66
2022/10/04 07:01:29;;;;;;;12.93;10.20;;;;;;;10.10;100.00;97253.88;4908077;29;20608;-65
2022/10/04 07:04:03;;;;;;;12.53;10.80;;;;;;;10.18;100.00;97245.34;4907006;29;20291;-65
2022/10/04 07:06:34;;;;;;;11.93;10.67;;;;;;;10.24;100.00;97256.25;4907413;29;20235;-65
2022/10/04 07:09:04;;;;;;;13.93;11.33;;;;;;;10.37;100.00;97258.75;4907334;29;20206;-65
2022/10/04 07:11:32;;;;;;;14.10;12.00;;;;;;;10.43;100.00;97250.28;4907362;29;20250;-64
2022/10/04 07:14:05;;;;;;;14.03;11.00;;;;;;;10.51;100.00;97255.78;4907079;29;20623;-65
2022/10/04 07:16:37;;;;;;;12.73;11.43;;;;;;;10.59;100.00;97250.72;4907131;29;20295;-65
2022/10/04 07:19:13;;;;;;;13.87;11.20;;;;;;;10.65;100.00;97250.19;4907557;29;20266;-66
2022/10/04 07:21:52;;;;;;;13.00;11.70;;;;;;;10.71;100.00;97260.25;4927334;29;20203;-65
2022/10/04 07:24:23;;;;;;;17.73;12.53;;;;;;;10.71;100.00;97264.69;4927370;29;20195;-65
2022/10/04 07:26:51;;;;;;;15.37;12.57;;;;;;;10.75;100.00;97266.13;4925779;29;20201;-66
2022/10/04 07:29:19;;;;;;;14.73;12.97;;;;;;;10.73;100.00;97260.97;4912119;29;20223;-65
2022/10/04 07:31:49;;;;;;;13.50;12.10;;;;;;;10.80;100.00;97274.50;4909325;29;20206;-65
2022/10/04 07:34:17;;;;;;;15.93;12.60;;;;;;;10.82;100.00;97273.41;4908438;29;20230;-65
2022/10/04 07:36:48;;;;;;;13.63;11.93;;;;;;;10.86;100.00;97274.84;4908104;29;20217;-64
2022/10/04 07:39:16;;;;;;;13.13;11.63;;;;;;;10.93;100.00;97273.34;4907504;29;20576;-65
2022/10/04 07:41:50;;;;;;;13.63;11.77;;;;;;;10.97;100.00;97277.41;4906937;29;20212;-65
2022/10/04 07:44:26;;;;;;;14.47;12.93;;;;;;;10.94;100.00;97282.13;4907065;29;20272;-65
2022/10/04 07:46:56;;;;;;;16.67;13.53;;;;;;;10.96;100.00;97281.03;4906790;29;20658;-65
2022/10/04 07:49:23;;;;;;;16.07;13.40;;;;;;;11.00;100.00;97278.94;4906621;29;20205;-66
2022/10/04 07:52:03;;;;;;;13.83;12.40;;;;;;;11.11;100.00;97278.03;4907360;29;20299;-66
2022/10/04 07:54:37;;;;;;;13.43;12.03;;;;;;;11.16;100.00;97281.97;4908759;29;20213;-65
2022/10/04 07:57:09;;;;;;;13.70;12.30;;;;;;;11.22;100.00;97280.63;4908514;29;20227;-66
2022/10/04 07:59:41;;;;;;;14.23;11.97;;;;;;;11.15;100.00;97293.53;4909169;29;20226;-65
2022/10/04 08:02:18;;;;;;;16.53;12.87;;;;;;;11.13;100.00;97286.69;4910094;29;20204;-65
2022/10/04 08:04:49;;;;;;;32.10;13.90;;;;;;;11.14;100.00;97291.00;4909313;29;20236;-65
2022/10/04 08:07:19;;;;;;;18.27;13.73;;;;;;;11.18;100.00;97285.34;4911532;29;20216;-65
2022/10/04 08:09:59;;;;;;;20.27;14.43;;;;;;;11.24;100.00;97291.91;4911002;29;20292;-65
2022/10/04 08:12:34;;;;;;;15.50;13.90;;;;;;;11.20;100.00;97293.13;4909750;29;20250;-66
2022/10/04 08:15:25;;;;;;;31.53;15.93;;;;;;;11.17;100.00;97302.19;4906326;29;20648;-66
2022/10/04 08:17:57;;;;;;;20.07;13.93;;;;;;;11.17;100.00;97298.69;4906439;29;20291;-66
2022/10/04 08:20:34;;;;;;;20.77;14.57;;;;;;;11.13;100.00;97302.56;4905553;29;20235;-65
2022/10/04 08:23:08;;;;;;;18.87;13.93;;;;;;;11.20;100.00;97314.31;4905505;29;20726;-66
2022/10/04 08:25:42;;;;;;;17.63;13.13;;;;;;;11.33;100.00;97312.31;4905600;29;20974;-66
2022/10/04 08:31:16;;;;;;;16.77;14.37;;;;;;;11.45;100.00;97309.44;4881608;29;20212;-66
2022/10/04 08:33:53;;;;;;;17.13;14.07;;;;;;;11.51;100.00;97313.38;4905756;29;20200;-66
2022/10/04 08:36:29;;;;;;;17.60;14.27;;;;;;;11.53;100.00;97300.84;4905726;29;20228;-66
2022/10/04 08:38:57;;;;;;;16.67;14.63;;;;;;;11.55;100.00;97293.56;4906016;29;20226;-65
2022/10/04 08:41:50;;;;;;;16.07;14.07;;;;;;;11.63;100.00;97296.41;4905581;29;20208;-65
2022/10/04 08:44:41;;;;;;;17.10;13.87;;;;;;;11.70;100.00;97292.25;4905232;29;20251;-64
2022/10/04 08:47:35;;;;;;;15.97;14.23;;;;;;;11.78;100.00;97295.09;4905782;29;20268;-66
2022/10/04 08:50:39;;;;;;;16.97;14.10;;;;;;;11.86;100.00;97287.34;4905555;29;20218;-66
2022/10/04 08:53:27;;;;;;;17.80;13.83;;;;;;;12.00;100.00;97282.63;4906229;29;20650;-66
2022/10/04 08:56:07;;;;;;;16.87;13.97;;;;;;;12.09;100.00;97293.22;4905500;29;20289;-66
2022/10/04 08:59:06;;;;;;;16.40;13.20;;;;;;;12.13;100.00;97291.16;4906298;29;20255;-65
2022/10/04 09:02:11;;;;;;;17.17;14.63;;;;;;;12.08;100.00;97286.25;4905464;29;20646;-65
2022/10/04 09:05:01;;;;;;;15.30;13.70;;;;;;;12.16;100.00;97283.75;4871475;29;20204;-65
2022/10/04 09:07:49;;;;;;;20.67;14.37;;;;;;;12.26;100.00;97289.06;4905949;29;20231;-64
2022/10/04 09:10:39;;;;;;;23.07;13.17;;;;;;;12.38;100.00;97288.81;4905992;29;20574;-65
2022/10/04 09:13:30;;;;;;;17.60;13.40;;;;;;;12.46;100.00;97285.47;4905709;29;20204;-65
2022/10/04 09:16:08;;;;;;;17.03;13.80;;;;;;;12.56;100.00;97283.66;4895751;29;20213;-65
2022/10/04 09:18:52;;;;;;;17.13;13.60;;;;;;;12.67;100.00;97283.53;4905506;29;20227;-66
2022/10/04 09:21:28;;;;;;;15.00;13.40;;;;;;;12.83;100.00;97283.78;4908535;29;20236;-65
2022/10/04 09:24:21;;;;;;;18.93;13.83;;;;;;;12.95;100.00;97281.81;4908921;29;20200;-66
2022/10/04 09:26:52;;;;;;;15.70;13.53;;;;;;;13.17;100.00;97289.50;4901289;29;20240;-67
2022/10/04 09:29:32;;;;;;;26.10;15.20;;;;;;;13.28;100.00;97291.16;4910169;29;20291;-65
2022/10/04 09:32:15;;;;;;;14.07;12.67;;;;;;;13.41;100.00;97296.97;4909542;29;20295;-67
2022/10/04 09:34:57;;;;;;;14.07;12.67;;;;;;;13.41;100.00;97287.19;4909791;29;20299;-66
2022/10/04 09:37:34;;;;;;;18.17;13.30;;;;;;;13.49;100.00;97283.81;4908765;29;20215;-65
2022/10/04 09:40:33;;;;;;;17.40;11.37;;;;;;;13.67;100.00;97290.03;4910201;29;20235;-66
2022/10/04 09:43:25;;;;;;;14.27;12.50;;;;;;;13.68;100.00;97286.38;4909939;29;20216;-67
2022/10/04 09:46:03;;;;;;;17.07;13.37;;;;;;;13.73;100.00;97281.47;4910130;29;20270;-66
2022/10/04 09:48:36;;;;;;;15.80;13.07;;;;;;;14.01;100.00;97287.63;4910778;29;20327;-66
2022/10/04 09:51:22;;;;;;;13.63;12.33;;;;;;;14.20;99.61;97284.03;4910403;29;20204;-65
2022/10/04 09:54:06;;;;;;;14.00;12.53;;;;;;;14.22;100.00;97284.69;4914376;29;20231;-65
2022/10/04 09:56:53;;;;;;;14.97;12.50;;;;;;;14.30;100.00;97282.13;4910250;29;20204;-65
2022/10/04 09:59:43;;;;;;;14.13;12.63;;;;;;;14.26;99.12;97283.41;4910097;29;20203;-66
2022/10/04 10:02:42;;;;;;;15.00;11.90;;;;;;;14.27;99.55;97282.44;4898632;29;20307;-65
2022/10/04 10:05:23;;;;;;;16.40;12.27;;;;;;;14.28;99.33;97273.44;4909647;29;20303;-66
2022/10/04 10:07:54;;;;;;;16.77;12.47;;;;;;;14.26;98.49;97270.09;4908274;29;20298;-66
2022/10/04 10:13:42;;;;;;;13.57;12.00;;;;;;;14.53;97.67;97282.53;4907971;29;20212;-65
2022/10/04 10:16:24;;;;;;;12.80;11.60;;;;;;;14.58;96.12;97274.94;4907788;29;20215;-66
2022/10/04 10:19:04;;;;;;;12.40;11.17;;;;;;;14.76;95.61;97273.94;4907782;29;20211;-66
2022/10/04 10:22:01;;;;;;;12.43;10.60;;;;;;;14.97;95.86;97270.13;4907227;29;20212;-66
2022/10/04 10:25:00;;;;;;;11.68;10.57;;;;;;;15.10;95.75;97273.19;4905713;29;20304;-66
2022/10/04 10:28:00;;;;;;;12.48;11.18;;;;;;;15.07;92.33;97269.03;4903121;29;20580;-66
2022/10/04 10:30:31;;;;;;;12.13;10.93;;;;;;;15.33;94.23;97269.03;4904456;29;20228;-65
2022/10/04 10:33:23;;;;;;;11.25;10.05;;;;;;;15.50;93.79;97268.16;4907442;29;20209;-64
2022/10/04 10:36:08;;;;;;;10.85;9.75;;;;;;;15.55;92.19;97265.88;4904191;29;20837;-65
2022/10/04 10:38:48;;;;;;;11.60;10.43;;;;;;;15.56;91.50;97267.53;4907136;29;20288;-65
2022/10/04 10:41:41;;;;;;;10.40;9.40;;;;;;;15.59;92.31;97263.72;4907203;29;20224;-66
2022/10/04 10:44:36;;;;;;;11.60;10.40;;;;;;;15.62;91.18;97264.25;4904336;29;20218;-64
2022/10/04 10:47:29;;;;;;;11.55;10.18;;;;;;;15.55;87.38;97259.72;4907338;29;20702;-66
2022/10/04 10:50:06;;;;;;;9.88;8.90;;;;;;;15.60;88.17;97268.88;4907345;29;20216;-66
2022/10/04 10:53:10;;;;;;;9.23;8.32;;;;;;;15.70;88.70;97263.44;4907146;29;20214;-66
2022/10/04 10:56:18;;;;;;;10.02;9.13;;;;;;;15.79;87.60;97255.31;4907285;29;20625;-65
2022/10/04 10:59:16;;;;;;;9.63;8.70;;;;;;;16.17;88.83;97255.78;4884482;29;20298;-66
2022/10/04 11:02:08;;;;;;;8.95;8.20;;;;;;;16.47;85.43;97263.19;4907272;29;20247;-65
2022/10/04 11:04:50;;;;;;;9.13;7.82;;;;;;;16.76;86.08;97252.88;4907071;29;20221;-65
2022/10/04 11:07:39;;;;;;;10.45;8.57;;;;;;;16.90;84.49;97252.22;4906979;29;20222;-65
2022/10/04 11:10:42;;;;;;;8.32;7.60;;;;;;;17.04;81.87;97250.69;4907003;29;20299;-65
2022/10/04 11:13:25;;;;;;;7.68;6.97;;;;;;;17.35;81.39;97243.66;4906403;29;20234;-65
2022/10/04 11:16:20;;;;;;;7.82;7.07;;;;;;;17.64;79.18;97247.63;4907033;29;20298;-65
2022/10/04 11:19:15;;;;;;;6.97;6.40;;;;;;;17.96;77.90;97244.00;4904888;29;20243;-63
2022/10/04 11:22:31;;;;;;;6.97;6.30;;;;;;;18.33;76.75;97244.94;4906721;29;20238;-65
2022/10/04 11:25:23;;;;;;;7.05;6.45;;;;;;;18.55;75.03;97232.63;4894044;29;20238;-65
2022/10/04 11:27:54;;;;;;;6.90;6.30;;;;;;;18.42;72.22;97242.22;4906776;29;20200;-65
2022/10/04 11:30:23;;;;;;;6.13;5.57;;;;;;;18.61;74.33;97234.59;4906788;29;20299;-64
2022/10/04 11:33:28;;;;;;;7.40;6.22;;;;;;;18.60;73.23;97230.22;4906704;29;20306;-64
2022/10/04 11:36:20;;;;;;;7.75;6.38;;;;;;;18.56;72.89;97228.94;4906505;29;20243;-64
2022/10/04 11:39:24;;;;;;;6.90;6.30;;;;;;;18.61;72.10;97231.91;4906645;29;20310;-64
2022/10/04 11:41:55;;;;;;;6.13;5.63;;;;;;;18.51;73.24;97231.31;4906266;29;20331;-66
2022/10/04 11:44:32;;;;;;;6.43;5.85;;;;;;;18.35;72.62;97231.41;4906386;29;20254;-66
2022/10/04 11:47:06;;;;;;;7.68;6.00;;;;;;;18.40;72.70;97234.38;4905922;29;20302;-67
2022/10/04 11:49:57;;;;;;;5.85;5.20;;;;;;;18.43;73.15;97217.94;4906165;29;20184;-66
2022/10/04 11:52:48;;;;;;;5.00;4.53;;;;;;;18.62;74.75;97219.34;4905986;29;20213;-64
2022/10/04 11:55:36;;;;;;;6.13;5.25;;;;;;;18.87;74.19;97215.47;4906110;29;20548;-64
2022/10/04 11:58:07;;;;;;;7.57;5.75;;;;;;;19.06;71.36;97209.56;4905772;29;20251;-65
2022/10/04 12:00:48;;;;;;;5.18;4.65;;;;;;;19.26;71.99;97215.25;4905518;29;20668;-64
2022/10/04 12:03:27;;;;;;;5.65;4.90;;;;;;;19.36;74.20;97216.66;4906175;29;20205;-65
2022/10/04 12:06:21;;;;;;;6.18;5.30;;;;;;;19.53;72.48;97222.69;4906191;29;20244;-65
2022/10/04 12:09:04;;;;;;;6.55;6.05;;;;;;;19.54;69.74;97212.81;4890480;29;20213;-66
2022/10/04 12:12:36;;;;;;;6.22;5.68;;;;;;;19.47;69.07;97211.88;4906051;29;20200;-64
2022/10/04 12:15:17;;;;;;;5.82;5.25;;;;;;;19.24;70.10;97201.19;4913786;29;20593;-66
2022/10/04 12:18:18;;;;;;;6.18;5.57;;;;;;;19.16;71.08;97193.25;4918530;29;20201;-65
2022/10/04 12:21:18;;;;;;;4.95;4.55;;;;;;;19.33;70.36;97192.91;4911590;29;20271;-66